createdAt,value
2023-04-08T00:05:22.141Z,9.4
2023-04-08T00:11:16.236Z,9.4
2023-04-08T00:17:08.380Z,9.3
2023-04-08T00:23:00.809Z,9.4
2023-04-08T00:28:53.303Z,9.3
2023-04-08T00:34:45.631Z,9.3
2023-04-08T00:40:36.838Z,9.3
2023-04-08T00:46:28.818Z,9.3
2023-04-08T00:52:21.339Z,9.2
2023-04-08T00:58:13.057Z,9.3
2023-04-08T01:04:05.373Z,9.2
2023-04-08T01:09:58.036Z,9.3
2023-04-08T01:15:51.590Z,9.3
2023-04-08T01:21:44.890Z,9.3
2023-04-08T01:27:37.166Z,9.3
2023-04-08T01:33:29.337Z,9.3
2023-04-08T01:39:21.619Z,9.1
2023-04-08T01:45:16.682Z,9.1
2023-04-08T01:51:08.094Z,9.2
2023-04-08T01:57:01.818Z,9.2
2023-04-08T02:02:54.070Z,9.2
2023-04-08T02:08:47.776Z,9.2
2023-04-08T02:14:42.331Z,9
2023-04-08T02:20:34.875Z,9.2
2023-04-08T02:26:28.015Z,9
2023-04-08T02:32:19.118Z,9
2023-04-08T02:38:12.266Z,9
2023-04-08T02:44:04.477Z,9
2023-04-08T02:49:57.591Z,9
2023-04-08T02:55:50.061Z,9
2023-04-08T03:01:42.653Z,9
2023-04-08T03:07:35.070Z,9
2023-04-08T03:13:26.950Z,9
2023-04-08T03:19:19.540Z,9
2023-04-08T03:25:11.212Z,8.9
2023-04-08T03:31:03.402Z,8.9
2023-04-08T03:36:55.677Z,8.8
2023-04-08T03:42:47.754Z,8.9
2023-04-08T03:48:40.193Z,8.8
2023-04-08T03:54:32.186Z,8.8
2023-04-08T04:00:24.304Z,8.9
2023-04-08T04:06:16.870Z,8.7
2023-04-08T04:12:10.026Z,8.9
2023-04-08T04:18:02.404Z,8.8
2023-04-08T11:51:47.582Z,11.4
2023-04-08T11:57:42.187Z,11.6
2023-04-08T12:03:58.885Z,11.3
2023-04-08T12:10:03.224Z,11.4
2023-04-08T12:16:06.085Z,11.4
2023-04-08T13:00:44.244Z,11.3
2023-04-08T13:25:45.156Z,11.4
2023-04-08T13:31:54.165Z,11.5
2023-04-08T13:37:45.686Z,11.6
2023-04-08T13:49:52.067Z,11.8
2023-04-08T13:55:54.124Z,11.6
2023-04-08T14:02:09.568Z,11.9
2023-04-08T14:08:24.019Z,11.7
2023-04-08T14:14:41.983Z,11.7
2023-04-08T14:20:57.458Z,11.7
2023-04-08T14:26:58.238Z,11.6
2023-04-08T14:32:52.716Z,11.7
2023-04-08T14:45:05.936Z,11.9
2023-04-08T14:51:12.612Z,11.9
2023-04-08T14:57:20.813Z,11.9
2023-04-08T15:03:53.371Z,11.9
2023-04-08T15:09:48.110Z,11.9
2023-04-08T15:15:46.630Z,12
2023-04-08T15:27:59.770Z,12.1
2023-04-08T15:33:55.266Z,12
2023-04-08T15:40:02.797Z,12.2
2023-04-08T15:46:08.451Z,12.1
2023-04-08T15:52:07.041Z,12.3
2023-04-08T15:58:01.872Z,12.3
2023-04-08T16:03:55.335Z,12.3
2023-04-08T16:10:06.446Z,12.3
2023-04-08T16:16:25.661Z,12.2
2023-04-08T16:35:20.746Z,12.1
2023-04-08T17:00:43.084Z,12.3
2023-04-08T17:06:40.567Z,12.2
2023-04-08T17:12:44.031Z,12.1
2023-04-08T17:18:47.027Z,12
2023-04-08T17:24:50.436Z,12
2023-04-08T17:30:46.845Z,11.9
2023-04-08T17:36:56.136Z,11.9
2023-04-08T17:49:06.201Z,11.7
2023-04-08T17:54:57.253Z,11.5
2023-04-08T18:00:49.329Z,11.5
2023-04-08T18:13:12.001Z,11.5
2023-04-08T18:19:04.246Z,11.4
2023-04-08T18:25:10.176Z,11.3
2023-04-08T18:31:02.485Z,11.2
2023-04-08T18:36:57.174Z,11.2
2023-04-08T18:42:49.472Z,11
2023-04-08T18:48:41.124Z,10.9
2023-04-08T18:54:32.942Z,10.9
2023-04-08T19:00:27.163Z,10.8
2023-04-08T19:06:18.885Z,10.7
2023-04-08T19:12:11.531Z,10.6
2023-04-08T19:18:04.010Z,10.6
2023-04-08T19:23:55.523Z,10.5
2023-04-08T19:29:47.116Z,10.2
2023-04-08T19:35:39.098Z,10.2
2023-04-08T19:41:31.484Z,10
2023-04-08T19:47:23.432Z,10.1
2023-04-08T19:53:15.744Z,9.8
2023-04-08T19:59:07.696Z,9.7
2023-04-08T20:05:00.728Z,9.9
2023-04-08T20:10:53.007Z,9.6
2023-04-08T20:16:44.787Z,9.7
2023-04-08T20:22:36.394Z,9.7
2023-04-08T20:28:28.751Z,9.7
2023-04-08T20:34:20.883Z,9.6
2023-04-08T20:40:13.146Z,9.6
2023-04-08T20:46:08.465Z,9.6
2023-04-08T20:52:00.847Z,9.6
2023-04-08T20:57:53.122Z,9.7
2023-04-08T21:03:47.368Z,9.7
2023-04-08T21:09:40.361Z,9.4
2023-04-08T21:15:32.886Z,9.7
2023-04-08T21:21:24.565Z,9.6
2023-04-08T21:27:17.444Z,9.6
2023-04-08T21:33:09.311Z,9.8
2023-04-08T21:39:01.883Z,9.7
2023-04-08T21:44:54.495Z,9.5
2023-04-08T21:50:48.643Z,9.7
2023-04-08T21:56:40.633Z,9.6
2023-04-08T22:02:33.439Z,9.6
2023-04-08T22:08:25.586Z,9.6
2023-04-08T22:14:17.448Z,9.6
2023-04-08T22:20:09.556Z,9.5
2023-04-08T22:26:01.497Z,9.4
2023-04-08T22:31:54.618Z,9.5
2023-04-08T22:37:46.929Z,9.2
2023-04-08T22:43:38.672Z,9.1
2023-04-08T22:49:30.351Z,8.9
2023-04-08T22:55:22.095Z,9.1
2023-04-08T23:01:13.751Z,8.9
2023-04-08T23:07:06.441Z,9.1
2023-04-08T23:12:58.714Z,8.9
2023-04-08T23:18:51.175Z,8.9
2023-04-08T23:24:43.224Z,8.9
2023-04-08T23:30:35.588Z,8.9
2023-04-08T23:36:27.201Z,8.9
2023-04-08T23:42:19.432Z,8.7
2023-04-08T23:48:10.833Z,8.8
2023-04-08T23:54:04.204Z,8.8
